Time;durP1;ratioP1;P1;durP2;ratioP2;P2;SDS_P1;SDS_P2;PMS_P1;PMS_P2;Temp;Humidity;BMP_temperature;BMP_pressure;BME280_temperature;BME280_humidity;BME280_pressure;Samples;Min_cycle;Max_cycle;Signal;HPM_P1;HPM_P2
2022/11/14 00:00:57;;;;;;;95.50;42.97;;;7.30;99.90;;;7.15;69.57;96079.72;5006698;28;21135;-56
2022/11/14 00:03:24;;;;;;;97.80;44.60;;;7.30;99.90;;;7.14;69.64;96079.81;5006932;28;20954;-54
2022/11/14 00:05:52;;;;;;;91.27;43.87;;;7.20;99.90;;;7.12;69.62;96079.91;5006706;28;20497;-56
2022/11/14 00:08:24;;;;;;;99.80;44.03;;;7.20;99.90;;;7.12;69.77;96074.66;5006906;28;20458;-55
2022/11/14 00:10:51;;;;;;;78.10;41.10;;;7.20;99.90;;;7.11;68.89;96072.13;4999719;28;20471;-56
2022/11/14 00:13:19;;;;;;;79.77;40.87;;;7.20;99.90;;;7.09;69.32;96079.25;5006712;28;20459;-53
2022/11/14 00:15:49;;;;;;;92.63;41.90;;;7.20;99.90;;;7.08;68.99;96078.41;5006344;28;20571;-54
2022/11/14 00:18:16;;;;;;;77.47;39.60;;;7.20;99.90;;;7.06;69.14;96075.03;5006479;28;21041;-55
2022/11/14 00:20:44;;;;;;;74.03;39.27;;;7.20;99.90;;;7.04;68.98;96071.66;5006324;28;20962;-54
2022/11/14 00:23:12;;;;;;;79.80;41.27;;;7.10;99.90;;;7.00;69.52;96070.16;5006535;28;20449;-54
2022/11/14 00:25:41;;;;;;;73.53;37.50;;;7.10;99.90;;;6.99;69.68;96068.47;5005636;28;20498;-55
2022/11/14 00:28:09;;;;;;;78.00;37.90;;;7.10;99.90;;;6.95;68.92;96069.56;5002440;28;20484;-56
2022/11/14 00:30:36;;;;;;;71.70;36.30;;;7.10;99.90;;;6.92;69.25;96073.19;5006948;28;20564;-54
2022/11/14 00:33:03;;;;;;;77.43;39.20;;;7.00;99.90;;;6.90;69.67;96079.47;5006285;28;20450;-57
2022/11/14 00:35:31;;;;;;;82.00;40.50;;;7.00;99.90;;;6.87;69.18;96074.41;5006383;28;20474;-59
2022/11/14 00:37:58;;;;;;;79.47;39.80;;;7.00;99.90;;;6.85;69.16;96081.47;5006625;28;20457;-54
2022/11/14 00:40:31;;;;;;;91.53;41.60;;;7.00;99.90;;;6.82;69.41;96082.53;5007111;28;20474;-56
2022/11/14 00:43:00;;;;;;;98.47;42.77;;;6.90;99.90;;;6.79;69.39;96083.53;5007385;28;20489;-55
2022/11/14 00:45:27;;;;;;;82.87;41.10;;;6.90;99.90;;;6.75;69.86;96078.56;5006249;28;20543;-56
2022/11/14 00:47:54;;;;;;;91.57;44.07;;;6.90;99.90;;;6.71;69.86;96077.91;5006275;28;20457;-55
2022/11/14 00:50:21;;;;;;;85.07;41.77;;;6.80;99.90;;;6.68;70.03;96070.22;5006382;28;20477;-54
2022/11/14 00:52:49;;;;;;;79.10;40.87;;;6.80;99.90;;;6.66;69.78;96068.63;5006334;28;20458;-55
2022/11/14 00:55:16;;;;;;;78.23;39.77;;;6.80;99.90;;;6.62;69.42;96070.56;5005194;28;20469;-56
2022/11/14 00:57:43;;;;;;;77.77;40.80;;;6.80;99.90;;;6.61;69.88;96063.66;5005731;28;20946;-56
2022/11/14 01:00:14;;;;;;;94.60;42.97;;;6.70;99.90;;;6.58;70.18;96067.28;5004299;28;20540;-57
2022/11/14 01:02:41;;;;;;;84.53;40.90;;;6.70;99.90;;;6.55;69.63;96063.97;5000851;28;20457;-56
2022/11/14 01:05:08;;;;;;;71.57;37.63;;;6.70;99.90;;;6.52;70.29;96064.16;5004325;28;20501;-54
2022/11/14 01:07:36;;;;;;;77.03;38.33;;;6.70;99.90;;;6.50;70.11;96072.09;5004385;28;20453;-56
2022/11/14 01:10:03;;;;;;;91.83;42.00;;;6.70;99.90;;;6.51;70.26;96067.72;5003295;28;20474;-56
2022/11/14 01:12:30;;;;;;;103.70;43.80;;;6.60;99.90;;;6.51;70.15;96073.78;5002294;28;20752;-57
2022/11/14 01:14:58;;;;;;;93.10;43.20;;;6.60;99.90;;;6.52;69.68;96066.75;5005379;28;20473;-56
2022/11/14 01:17:27;;;;;;;111.03;45.57;;;6.60;99.90;;;6.53;69.89;96071.06;5006078;28;20457;-54
2022/11/14 01:19:54;;;;;;;89.73;43.77;;;6.60;99.90;;;6.51;69.71;96075.56;5002060;28;20480;-54
2022/11/14 01:22:22;;;;;;;94.83;42.70;;;6.60;99.90;;;6.51;69.84;96073.78;5006126;28;20887;-57
2022/11/14 01:24:49;;;;;;;87.37;41.70;;;6.60;99.90;;;6.50;69.45;96068.63;5006152;28;20970;-56
2022/11/14 01:27:16;;;;;;;79.17;38.73;;;6.60;99.90;;;6.50;69.15;96060.78;5002226;28;20519;-53
2022/11/14 01:29:43;;;;;;;79.20;40.50;;;6.60;99.90;;;6.48;69.27;96063.50;5005966;28;20469;-55
2022/11/14 01:32:11;;;;;;;78.57;39.13;;;6.60;99.90;;;6.46;69.17;96055.75;5005847;28;20453;-55
2022/11/14 01:34:39;;;;;;;80.07;40.47;;;6.60;99.90;;;6.44;69.72;96055.00;5005616;28;20556;-56
2022/11/14 01:37:07;;;;;;;79.53;40.50;;;6.60;99.90;;;6.42;68.72;96058.59;5002537;28;20458;-57
2022/11/14 01:39:34;;;;;;;85.83;38.67;;;6.60;99.90;;;6.38;68.82;96052.72;5008954;28;20492;-56
2022/11/14 01:42:01;;;;;;;77.00;38.67;;;6.50;99.90;;;6.35;69.31;96047.66;5009561;28;20453;-53
2022/11/14 01:44:49;;;;;;;73.37;38.10;;;6.50;99.90;;;6.31;68.94;96043.53;5009562;28;20844;-56
2022/11/14 01:47:19;;;;;;;75.33;36.93;;;6.50;99.90;;;6.30;69.28;96054.88;5009458;28;20453;-54
2022/11/14 01:49:50;;;;;;;65.87;35.20;;;6.40;99.90;;;6.27;68.63;96047.22;5006758;28;20477;-54
2022/11/14 01:52:20;;;;;;;60.73;31.10;;;6.40;99.90;;;6.23;68.69;96040.50;5009478;28;20776;-54
2022/11/14 01:54:49;;;;;;;57.67;29.80;;;6.40;99.90;;;6.19;68.67;96031.13;5005542;28;20477;-53
2022/11/14 01:57:19;;;;;;;65.33;29.70;;;6.40;99.90;;;6.16;68.70;96032.13;5009389;28;20954;-54
2022/11/14 01:59:49;;;;;;;56.00;29.30;;;6.30;99.90;;;6.12;68.31;96030.63;5009370;28;20470;-52
2022/11/14 02:02:19;;;;;;;53.80;29.63;;;6.30;99.90;;;6.06;68.54;96025.75;5005735;28;20453;-56
2022/11/14 02:04:50;;;;;;;53.97;28.73;;;6.20;99.90;;;6.03;68.15;96025.91;5008916;28;20492;-56
2022/11/14 02:07:17;;;;;;;47.87;27.40;;;6.20;99.90;;;5.99;68.32;96016.53;5008781;28;20500;-54
2022/11/14 02:09:46;;;;;;;48.23;26.87;;;6.20;99.90;;;5.96;68.61;96017.50;5008767;28;20492;-54
2022/11/14 02:12:15;;;;;;;48.07;26.63;;;6.10;99.90;;;5.94;67.79;96014.16;5003405;28;20983;-54
2022/11/14 02:14:44;;;;;;;43.37;26.10;;;6.10;99.90;;;5.90;68.18;96016.09;5008692;28;20505;-53
2022/11/14 02:17:11;;;;;;;52.60;27.03;;;6.10;99.90;;;5.86;68.29;96013.72;5008774;28;20453;-54
2022/11/14 02:19:43;;;;;;;45.13;25.00;;;6.00;99.90;;;5.82;67.66;96012.19;5008562;28;20474;-56
2022/11/14 02:22:12;;;;;;;47.63;25.63;;;6.00;99.90;;;5.77;68.11;96015.06;5008531;28;20464;-55
2022/11/14 02:24:39;;;;;;;57.60;24.57;;;5.90;99.90;;;5.71;68.58;96010.16;5008942;28;20645;-56
2022/11/14 02:27:06;;;;;;;49.13;25.50;;;5.90;99.90;;;5.69;68.17;96012.03;5005119;28;20446;-54
2022/11/14 02:29:33;;;;;;;45.13;25.90;;;5.90;99.90;;;5.66;68.32;96009.56;5008660;28;20575;-55
2022/11/14 02:32:01;;;;;;;40.20;24.27;;;5.80;99.90;;;5.64;68.60;96009.66;5001599;28;20445;-56
2022/11/14 02:34:28;;;;;;;48.27;24.73;;;5.80;99.90;;;5.61;68.42;96004.59;5008770;28;20477;-53
2022/11/14 02:36:55;;;;;;;52.63;25.87;;;5.80;99.90;;;5.61;68.64;96006.34;5008157;28;20453;-54
2022/11/14 02:39:24;;;;;;;43.97;23.20;;;5.80;99.90;;;5.58;68.33;96007.38;5008723;28;20523;-55
2022/11/14 02:41:51;;;;;;;42.57;22.03;;;5.80;99.90;;;5.55;68.97;96003.16;5008965;28;20782;-56
2022/11/14 02:44:19;;;;;;;44.33;23.40;;;5.70;99.90;;;5.53;68.92;95998.94;5008773;28;20473;-54
2022/11/14 02:46:46;;;;;;;40.60;22.07;;;5.70;99.90;;;5.52;68.85;96008.53;5008231;28;20485;-54
2022/11/14 02:49:13;;;;;;;43.23;22.83;;;5.70;99.90;;;5.50;68.68;96006.91;5008173;28;20539;-56
2022/11/14 02:51:41;;;;;;;47.30;23.00;;;5.70;99.90;;;5.48;69.14;96006.16;5008123;28;20462;-56
2022/11/14 02:54:08;;;;;;;45.13;23.87;;;5.60;99.90;;;5.46;68.76;96005.41;5008152;28;20621;-56
2022/11/14 02:56:37;;;;;;;42.60;23.67;;;5.60;99.90;;;5.44;69.11;96004.63;5008235;28;20465;-55
2022/11/14 02:59:04;;;;;;;47.37;24.87;;;5.60;99.90;;;5.42;69.21;96011.69;5007783;28;20596;-57
2022/11/14 03:01:31;;;;;;;52.33;25.00;;;5.60;99.90;;;5.43;69.61;96010.78;5008080;28;20469;-55
2022/11/14 03:03:58;;;;;;;52.40;25.87;;;5.60;99.90;;;5.43;69.46;96011.63;5008120;28;20457;-55
2022/11/14 03:06:26;;;;;;;46.33;23.30;;;5.60;99.90;;;5.43;69.45;96011.63;5004400;28;20917;-58
2022/11/14 03:08:53;;;;;;;55.03;28.70;;;5.60;99.90;;;5.43;69.54;96002.97;5007787;28;20565;-56
2022/11/14 03:11:20;;;;;;;53.10;25.70;;;5.60;99.90;;;5.44;69.45;96002.03;5002514;28;20450;-54
2022/11/14 03:13:49;;;;;;;67.90;28.40;;;5.60;99.90;;;5.45;69.83;96001.94;5007463;28;20923;-54
2022/11/14 03:16:16;;;;;;;57.73;28.80;;;5.60;99.90;;;5.47;69.70;96000.13;5007510;28;21041;-56
2022/11/14 03:18:43;;;;;;;52.53;26.70;;;5.60;99.90;;;5.49;70.12;95997.41;5007503;28;20519;-54
2022/11/14 03:21:13;;;;;;;57.17;28.30;;;5.60;99.90;;;5.50;70.14;95999.09;5007859;28;20849;-56
2022/11/14 03:23:40;;;;;;;55.40;28.20;;;5.70;99.90;;;5.52;69.76;96000.69;5006427;28;20849;-54
2022/11/14 03:26:09;;;;;;;68.40;29.60;;;5.70;99.90;;;5.52;69.86;95999.88;5005525;28;20492;-56
2022/11/14 03:28:36;;;;;;;61.70;29.20;;;5.70;99.90;;;5.53;69.77;95999.78;5006310;28;20573;-56
2022/11/14 03:31:05;;;;;;;63.60;28.90;;;5.70;99.90;;;5.53;70.21;96001.53;5007745;28;20660;-55
2022/11/14 03:33:32;;;;;;;57.67;27.20;;;5.70;99.90;;;5.53;70.06;95996.31;5005147;28;20450;-54
2022/11/14 03:36:00;;;;;;;47.43;25.20;;;5.70;99.90;;;5.54;70.38;96001.44;5007124;28;20469;-54
2022/11/14 03:38:27;;;;;;;48.10;25.07;;;5.70;99.90;;;5.56;70.04;96007.47;5008003;28;20453;-54
2022/11/14 03:40:54;;;;;;;40.87;22.40;;;5.70;99.90;;;5.57;70.28;96003.06;5007654;28;20490;-56
2022/11/14 03:43:21;;;;;;;46.77;24.30;;;5.70;99.90;;;5.58;70.62;95994.31;5006935;28;20503;-54
2022/11/14 03:45:49;;;;;;;49.73;25.87;;;5.70;99.90;;;5.60;70.41;96002.06;5007312;28;20497;-55
2022/11/14 03:48:17;;;;;;;43.77;25.07;;;5.70;99.90;;;5.60;70.65;95997.69;5007396;28;21077;-54
2022/11/14 03:50:44;;;;;;;49.53;25.80;;;5.80;99.90;;;5.62;70.61;96001.03;5007370;28;20867;-56
2022/11/14 03:53:12;;;;;;;49.10;26.27;;;5.70;99.90;;;5.63;70.54;95992.31;5007004;28;20525;-56
2022/11/14 03:55:39;;;;;;;60.00;28.57;;;5.80;99.90;;;5.65;70.51;95993.06;5006770;28;20473;-54
2022/11/14 03:58:06;;;;;;;57.90;28.60;;;5.80;99.90;;;5.65;70.65;95990.44;5003545;28;20914;-54
2022/11/14 04:00:33;;;;;;;57.43;28.53;;;5.80;99.90;;;5.69;71.05;95989.38;5006106;28;20500;-56
2022/11/14 04:03:01;;;;;;;60.73;29.47;;;5.80;99.90;;;5.70;70.40;95987.59;5006695;28;20453;-53
2022/11/14 04:05:29;;;;;;;59.03;28.97;;;5.80;99.90;;;5.71;71.00;95991.91;5006383;28;20497;-57
2022/11/14 04:07:57;;;;;;;60.57;28.27;;;5.80;99.90;;;5.72;70.53;95989.19;5006557;28;20461;-54
2022/11/14 04:10:24;;;;;;;63.63;28.70;;;5.90;99.90;;;5.73;70.76;95990.91;5004112;28;20794;-56
2022/11/14 04:12:52;;;;;;;59.33;28.70;;;5.90;99.90;;;5.75;70.68;95996.03;5005601;28;20446;-55
2022/11/14 04:15:19;;;;;;;49.07;25.93;;;5.90;99.90;;;5.78;70.97;96000.22;5005038;28;20845;-54
2022/11/14 04:17:47;;;;;;;58.50;27.33;;;5.90;99.90;;;5.78;71.23;95992.41;5006612;28;20833;-56
2022/11/14 04:20:14;;;;;;;61.43;26.97;;;5.90;99.90;;;5.81;71.07;95994.84;5006363;28;20481;-55
2022/11/14 04:22:43;;;;;;;69.93;28.40;;;5.90;99.90;;;5.81;71.06;95995.72;5006543;28;20450;-56
2022/11/14 04:25:10;;;;;;;63.20;28.30;;;6.00;99.90;;;5.85;71.23;95993.75;5006231;28;20477;-56
2022/11/14 04:27:37;;;;;;;80.43;31.20;;;6.00;99.90;;;5.87;70.95;95984.06;5002972;28;20963;-54
2022/11/14 04:30:06;;;;;;;61.90;27.53;;;6.00;99.90;;;5.90;71.07;95981.28;5006726;28;20477;-55
2022/11/14 04:32:33;;;;;;;70.10;27.50;;;6.00;99.90;;;5.93;71.14;95984.59;5003188;28;20453;-58
2022/11/14 04:35:00;;;;;;;62.90;29.00;;;6.00;99.90;;;5.96;71.17;95982.72;5006538;28;20570;-53
2022/11/14 04:37:27;;;;;;;62.57;25.87;;;6.10;99.90;;;6.00;71.13;95985.13;5006914;28;20450;-55
2022/11/14 04:39:59;;;;;;;61.03;28.30;;;6.10;99.90;;;6.05;71.51;95985.72;5001606;28;20471;-55
2022/11/14 04:42:27;;;;;;;72.03;30.03;;;6.20;99.90;;;6.08;71.13;95982.09;5005413;28;20442;-55
2022/11/14 04:44:54;;;;;;;61.23;28.50;;;6.20;99.90;;;6.12;71.59;95983.63;5004299;28;20470;-55
2022/11/14 04:47:21;;;;;;;61.73;27.90;;;6.30;99.90;;;6.17;71.24;95985.97;5002021;28;20504;-55
2022/11/14 04:49:48;;;;;;;61.33;29.83;;;6.30;99.90;;;6.20;71.11;95988.41;4995747;28;20477;-57
2022/11/14 04:52:16;;;;;;;70.43;29.80;;;6.30;99.90;;;6.22;71.22;95983.94;5005708;28;20449;-55
2022/11/14 04:54:43;;;;;;;63.33;29.33;;;6.40;99.90;;;6.27;71.47;95987.13;5002193;28;20473;-57
2022/11/14 04:57:11;;;;;;;62.30;26.93;;;6.40;99.90;;;6.30;71.39;95986.97;5005830;28;20830;-57
2022/11/14 04:59:39;;;;;;;54.37;27.00;;;6.40;99.90;;;6.32;71.07;95973.81;5002033;28;20489;-54
2022/11/14 05:02:06;;;;;;;54.23;26.57;;;6.50;99.90;;;6.34;70.89;95978.03;5005480;28;20572;-55
2022/11/14 05:04:33;;;;;;;48.30;25.57;;;6.50;99.90;;;6.37;70.58;95980.47;5001211;28;20474;-57
2022/11/14 05:07:01;;;;;;;59.67;28.40;;;6.50;99.90;;;6.38;70.59;95983.91;5001690;28;20497;-58
2022/11/14 05:09:28;;;;;;;65.00;28.93;;;6.50;99.90;;;6.39;70.98;95985.59;5002209;28;20553;-56
2022/11/14 05:11:55;;;;;;;63.60;26.57;;;6.50;99.90;;;6.39;70.50;95993.44;5004139;28;20449;-57
2022/11/14 05:14:24;;;;;;;67.73;27.63;;;6.50;99.90;;;6.36;71.05;95991.84;5004685;28;20865;-56
2022/11/14 05:16:51;;;;;;;52.23;24.87;;;6.50;99.90;;;6.35;70.46;95992.78;5006352;28;20835;-55
2022/11/14 05:19:19;;;;;;;60.23;27.10;;;6.50;99.90;;;6.32;70.50;95990.34;5006681;28;20496;-55
2022/11/14 05:21:46;;;;;;;54.23;26.73;;;6.50;99.90;;;6.28;70.87;95997.50;5007712;28;20453;-54
2022/11/14 05:24:13;;;;;;;58.57;27.30;;;6.40;99.90;;;6.26;70.50;96001.97;5004995;28;20469;-55
2022/11/14 05:26:41;;;;;;;61.90;27.70;;;6.40;99.90;;;6.23;70.80;95996.09;5004156;28;21033;-55
2022/11/14 05:29:08;;;;;;;62.70;26.13;;;6.40;99.90;;;6.21;70.97;95993.56;5011831;28;20484;-55
2022/11/14 05:31:36;;;;;;;58.90;27.57;;;6.40;99.90;;;6.20;70.81;95999.69;5011653;28;20449;-55
2022/11/14 05:34:04;;;;;;;66.10;27.23;;;6.40;99.90;;;6.19;71.40;95994.56;5010016;28;20469;-55
2022/11/14 05:36:31;;;;;;;63.70;26.93;;;6.30;99.90;;;6.16;71.21;95999.94;5012251;28;20461;-55
2022/11/14 05:38:58;;;;;;;59.23;29.37;;;6.30;99.90;;;6.14;71.15;95999.22;5011630;28;20462;-55
2022/11/14 05:41:26;;;;;;;103.23;26.20;;;6.30;99.90;;;6.13;71.54;95990.50;5011648;28;20485;-57
2022/11/14 05:43:53;;;;;;;47.53;22.60;;;6.30;99.90;;;6.14;71.39;95991.38;5011865;28;20464;-57
2022/11/14 05:46:20;;;;;;;50.33;25.60;;;6.30;99.90;;;6.14;71.41;95993.97;5010231;28;20890;-53
2022/11/14 05:48:49;;;;;;;54.50;24.70;;;6.30;99.90;;;6.14;71.08;96001.81;5010537;28;20934;-55
2022/11/14 05:51:16;;;;;;;54.27;25.50;;;6.30;99.90;;;6.12;71.36;96003.66;5006475;28;20465;-56
2022/11/14 05:53:44;;;;;;;53.70;26.07;;;6.30;99.90;;;6.11;71.64;96002.81;5011183;28;20551;-53
2022/11/14 05:56:12;;;;;;;56.23;25.47;;;6.30;99.90;;;6.10;71.41;96002.00;5011686;28;20450;-55
2022/11/14 05:58:39;;;;;;;52.23;25.87;;;6.20;99.90;;;6.08;71.78;96006.44;5011862;28;20826;-55
2022/11/14 06:01:08;;;;;;;52.83;24.43;;;6.20;99.90;;;6.09;71.78;96010.75;5008123;28;20450;-55
2022/11/14 06:03:37;;;;;;;58.33;25.53;;;6.20;99.90;;;6.10;71.60;96007.22;5007509;28;20453;-56
2022/11/14 06:06:07;;;;;;;48.80;24.87;;;6.20;99.90;;;6.12;71.41;96014.97;5004258;28;20548;-55
2022/11/14 06:08:35;;;;;;;54.70;25.97;;;6.30;99.90;;;6.13;71.66;96016.63;5008370;28;20445;-55
2022/11/14 06:11:03;;;;;;;61.83;28.07;;;6.20;99.90;;;6.13;71.86;96019.25;5003861;28;20512;-57
2022/11/14 06:13:30;;;;;;;53.83;25.40;;;6.30;99.90;;;6.14;71.36;96012.25;5010461;28;20556;-57
2022/11/14 06:16:00;;;;;;;53.87;25.40;;;6.30;99.90;;;6.14;71.53;96025.31;5005743;28;20497;-55
2022/11/14 06:18:28;;;;;;;50.00;25.20;;;6.20;99.90;;;6.15;72.21;96021.75;5007349;28;20603;-55
2022/11/14 06:20:59;;;;;;;39.40;21.37;;;6.30;99.90;;;6.16;71.53;96020.84;5004103;28;20563;-57
2022/11/14 06:23:28;;;;;;;44.60;22.50;;;6.30;99.90;;;6.16;71.92;96021.69;5003575;28;20849;-56
2022/11/14 06:26:00;;;;;;;88.90;24.07;;;6.30;99.90;;;6.17;71.79;96028.59;5003059;28;20485;-56
2022/11/14 06:28:27;;;;;;;66.43;22.03;;;6.30;99.90;;;6.17;71.31;96019.94;5006872;28;20520;-57
2022/11/14 06:30:58;;;;;;;65.87;23.97;;;6.30;99.90;;;6.17;71.81;96014.72;5007657;28;20893;-57
2022/11/14 06:33:26;;;;;;;53.93;24.10;;;6.30;99.90;;;6.17;71.58;96020.75;5008153;28;20442;-55
2022/11/14 06:35:59;;;;;;;74.93;23.00;;;6.30;99.90;;;6.17;71.92;96012.94;5008217;28;20486;-55
2022/11/14 06:38:28;;;;;;;55.67;24.50;;;6.30;99.90;;;6.19;71.84;96020.69;5007470;28;20456;-57
2022/11/14 06:41:02;;;;;;;57.80;26.23;;;6.30;99.90;;;6.20;71.94;96020.59;5004587;28;20473;-57
2022/11/14 06:43:32;;;;;;;50.33;23.80;;;6.30;99.90;;;6.19;72.07;96020.69;5008302;28;20536;-58
2022/11/14 06:45:59;;;;;;;70.33;26.57;;;6.30;99.90;;;6.18;72.46;96019.00;5007661;28;20572;-56
2022/11/14 06:48:27;;;;;;;85.03;28.07;;;6.30;99.90;;;6.17;71.32;96010.31;5008109;28;20461;-55
2022/11/14 06:50:55;;;;;;;89.13;27.97;;;6.30;99.90;;;6.14;71.70;96020.09;5007417;28;20477;-58
2022/11/14 06:53:22;;;;;;;57.23;25.90;;;6.30;99.90;;;6.09;72.34;96013.34;5008198;28;20465;-55
2022/11/14 06:55:58;;;;;;;55.80;23.50;;;6.30;99.90;;;6.14;74.36;96014.88;5005034;28;20754;-58
2022/11/14 06:58:29;;;;;;;57.50;25.30;;;6.30;99.90;;;6.24;76.13;96016.03;5007942;28;20449;-57
2022/11/14 07:00:56;;;;;;;43.83;23.70;;;6.30;99.90;;;6.36;76.06;96014.53;5007921;28;20473;-55
2022/11/14 07:03:23;;;;;;;63.17;26.40;;;6.40;99.90;;;6.48;76.97;96007.78;5007809;28;20531;-58
2022/11/14 07:05:51;;;;;;;67.10;28.50;;;6.50;99.90;;;6.55;75.51;96003.88;5007553;28;21003;-55
2022/11/14 07:08:18;;;;;;;54.50;27.70;;;6.60;99.90;;;6.62;74.89;96008.66;5007753;28;20454;-56
2022/11/14 07:10:46;;;;;;;80.93;29.90;;;6.70;99.90;;;6.73;74.26;96012.44;5003119;28;21019;-55
2022/11/14 07:13:14;;;;;;;89.40;29.97;;;6.70;99.90;;;6.73;73.29;96009.81;5007362;28;20461;-54
2022/11/14 07:15:51;;;;;;;55.87;28.47;;;6.80;99.90;;;6.66;73.16;96009.31;5006231;28;20488;-57
2022/11/14 07:18:18;;;;;;;61.57;28.33;;;6.70;99.90;;;6.69;73.79;96013.53;5002958;28;20473;-57
2022/11/14 07:20:45;;;;;;;83.47;29.33;;;6.70;99.90;;;6.77;73.73;96014.78;5007200;28;20954;-57
2022/11/14 07:23:13;;;;;;;58.17;27.00;;;6.80;99.90;;;6.85;73.68;96009.13;5007193;28;20801;-55
2022/11/14 07:25:40;;;;;;;58.13;28.87;;;6.90;99.90;;;6.93;73.41;96017.34;5007252;28;20466;-56
2022/11/14 07:28:07;;;;;;;70.63;28.17;;;6.90;99.90;;;6.97;72.85;96010.16;5003755;28;20900;-58
2022/11/14 07:30:36;;;;;;;48.87;24.93;;;7.00;99.90;;;7.01;72.04;96003.84;5007542;28;20481;-55
2022/11/14 07:33:03;;;;;;;53.33;27.17;;;7.10;99.90;;;7.02;71.91;96008.13;5003849;28;20449;-54
2022/11/14 07:35:31;;;;;;;60.00;25.70;;;7.10;99.90;;;7.00;71.27;96003.00;5005632;28;20985;-55
2022/11/14 07:38:02;;;;;;;48.07;26.20;;;7.10;99.90;;;7.00;71.61;96002.13;5007469;28;20458;-57
2022/11/14 07:40:29;;;;;;;54.90;27.33;;;7.10;99.90;;;7.00;71.70;96002.13;5003311;28;20571;-56
2022/11/14 07:42:59;;;;;;;54.33;26.17;;;7.10;99.90;;;7.03;71.64;95998.50;5007248;28;20454;-55
2022/11/14 07:45:27;;;;;;;60.07;29.93;;;7.10;99.90;;;7.05;71.30;95992.28;5006876;28;20641;-55
2022/11/14 07:47:59;;;;;;;57.47;27.87;;;7.10;99.90;;;7.06;71.16;96003.56;5006829;28;20496;-57
2022/11/14 07:50:26;;;;;;;54.27;26.67;;;7.10;99.90;;;7.07;70.92;95997.41;5006688;28;20897;-56
2022/11/14 07:52:54;;;;;;;48.07;25.07;;;7.10;99.90;;;7.09;71.76;96003.38;5006736;28;20468;-55
2022/11/14 07:55:22;;;;;;;56.87;27.30;;;7.20;99.90;;;7.11;71.13;95997.13;5002664;28;20488;-56
2022/11/14 07:57:52;;;;;;;48.63;26.70;;;7.20;99.90;;;7.14;71.62;95996.09;5005569;28;20517;-52
2022/11/14 08:00:19;;;;;;;58.23;27.87;;;7.20;99.90;;;7.16;71.30;95984.63;5006776;28;20488;-57
2022/11/14 08:02:47;;;;;;;54.00;27.10;;;7.30;99.90;;;7.16;70.82;95989.84;5006519;28;21036;-57
2022/11/14 08:05:16;;;;;;;54.07;28.13;;;7.20;99.90;;;7.16;70.91;95987.22;5006252;28;20493;-56
2022/11/14 08:07:43;;;;;;;60.67;27.90;;;7.30;99.90;;;7.17;70.94;95986.31;5006485;28;20489;-57
2022/11/14 08:10:12;;;;;;;57.27;28.77;;;7.30;99.90;;;7.18;71.57;95985.34;5005757;28;20635;-54
2022/11/14 08:12:39;;;;;;;62.70;29.10;;;7.30;99.90;;;7.22;71.20;95988.66;5003877;28;20547;-57
2022/11/14 08:15:08;;;;;;;62.40;29.53;;;7.30;99.90;;;7.25;71.26;95985.00;5006647;28;21002;-56
2022/11/14 08:17:36;;;;;;;63.57;30.10;;;7.30;99.90;;;7.27;71.16;95983.16;5006730;28;20453;-56
2022/11/14 08:20:03;;;;;;;56.50;27.80;;;7.30;99.90;;;7.30;70.56;95988.19;5002852;28;20492;-54
2022/11/14 08:22:32;;;;;;;60.63;29.00;;;7.40;99.90;;;7.29;70.35;95987.34;5006411;28;20529;-56
2022/11/14 08:24:59;;;;;;;64.30;29.97;;;7.40;99.90;;;7.30;70.92;95982.97;5006476;28;20524;-55
2022/11/14 08:27:27;;;;;;;62.47;30.50;;;7.40;99.90;;;7.36;71.21;95987.81;5002247;28;20496;-55
2022/11/14 08:29:54;;;;;;;71.47;33.50;;;7.40;99.90;;;7.41;70.58;95979.69;5005837;28;21181;-55
2022/11/14 08:32:21;;;;;;;60.97;32.27;;;7.50;99.90;;;7.44;70.59;95976.91;5004978;28;21137;-54
2022/11/14 08:34:48;;;;;;;61.27;30.87;;;7.50;99.90;;;7.49;71.22;95975.66;5005685;28;20480;-55
2022/11/14 08:37:16;;;;;;;67.20;31.03;;;7.60;99.90;;;7.54;70.67;95976.25;5002216;28;20533;-55
2022/11/14 08:39:45;;;;;;;67.10;33.00;;;7.60;99.90;;;7.60;70.62;95976.78;5005802;28;20474;-57
2022/11/14 08:42:12;;;;;;;69.07;33.93;;;7.70;99.90;;;7.64;70.34;95976.50;5006006;28;20492;-56
2022/11/14 08:44:39;;;;;;;69.93;32.20;;;7.70;99.90;;;7.66;70.12;95974.63;5005924;28;20469;-55
2022/11/14 08:47:06;;;;;;;72.13;35.30;;;7.70;99.90;;;7.68;70.08;95966.69;5005337;28;20497;-55
2022/11/14 08:49:33;;;;;;;79.57;36.30;;;7.80;99.90;;;7.70;70.63;95970.06;4999112;28;21087;-57
2022/11/14 08:52:01;;;;;;;92.47;38.80;;;7.80;99.90;;;7.72;70.07;95969.00;5000800;28;20484;-54
2022/11/14 08:54:29;;;;;;;90.30;37.90;;;7.80;99.90;;;7.73;69.84;95964.63;4997370;28;20490;-55
2022/11/14 08:56:57;;;;;;;102.20;41.97;;;7.80;99.90;;;7.74;70.40;95966.28;5005053;28;20450;-55
2022/11/14 08:59:25;;;;;;;109.47;45.37;;;7.80;99.90;;;7.74;70.77;95958.44;4997998;28;20820;-55
2022/11/14 09:01:52;;;;;;;105.07;45.63;;;7.80;99.90;;;7.75;70.66;95960.13;5000894;28;20556;-56
2022/11/14 09:04:19;;;;;;;109.83;46.17;;;7.90;99.90;;;7.77;70.23;95957.41;4996624;28;20474;-55
2022/11/14 09:06:47;;;;;;;114.10;47.93;;;7.80;99.90;;;7.76;70.07;95953.09;5001282;28;20501;-57
2022/11/14 09:09:14;;;;;;;111.27;45.00;;;7.80;99.90;;;7.73;69.79;95948.91;4997651;28;20564;-55
2022/11/14 09:11:41;;;;;;;104.10;46.70;;;7.80;99.90;;;7.71;70.38;95946.41;4994570;28;20446;-54
2022/11/14 09:14:10;;;;;;;115.23;47.90;;;7.80;99.90;;;7.71;70.14;95935.06;5001139;28;20474;-54
2022/11/14 09:16:37;;;;;;;112.03;46.93;;;7.80;99.90;;;7.76;70.21;95943.50;5001235;28;20901;-56
2022/11/14 09:19:04;;;;;;;119.00;48.43;;;7.80;99.90;;;7.78;69.94;95939.00;4998137;28;20478;-54
2022/11/14 09:21:32;;;;;;;126.43;49.77;;;7.90;99.90;;;7.81;70.00;95943.19;5000927;28;20472;-56
2022/11/14 09:23:59;;;;;;;123.37;51.00;;;7.90;99.90;;;7.82;69.73;95930.00;4997606;28;20458;-56
2022/11/14 09:26:27;;;;;;;135.80;54.20;;;7.90;99.90;;;7.83;70.46;95929.06;4997340;28;20580;-54
2022/11/14 09:28:54;;;;;;;122.07;51.10;;;7.90;99.90;;;7.88;70.43;95926.16;5001350;28;20937;-55
2022/11/14 09:31:23;;;;;;;142.40;55.00;;;7.90;99.90;;;7.92;69.77;95937.25;5004749;28;20462;-56
2022/11/14 09:33:50;;;;;;;147.77;54.37;;;8.00;99.90;;;7.94;70.47;95927.53;5005322;28;20921;-56
2022/11/14 09:36:18;;;;;;;131.27;53.30;;;8.00;99.90;;;7.97;69.98;95922.13;5004933;28;20935;-56
2022/11/14 09:38:46;;;;;;;134.83;54.80;;;8.00;99.90;;;7.99;69.47;95926.28;5004925;28;20966;-55
2022/11/14 09:41:24;;;;;;;126.57;53.57;;;8.00;99.90;;;8.01;70.29;95918.34;5005146;28;20476;-57
2022/11/14 09:44:13;;;;;;;113.93;50.40;;;8.10;99.90;;;8.03;69.64;95911.25;4998379;28;20453;-53
2022/11/14 09:46:44;;;;;;;128.40;53.13;;;8.10;99.90;;;8.07;69.57;95910.94;4998473;28;20480;-56
2022/11/14 09:49:26;;;;;;;125.80;52.90;;;8.10;99.90;;;8.10;69.70;95915.13;5005163;28;21158;-55
2022/11/14 09:51:59;;;;;;;134.07;52.87;;;8.20;99.90;;;8.05;69.40;95910.19;5002792;28;20523;-54
2022/11/14 09:54:28;;;;;;;147.47;55.03;;;8.10;99.90;;;7.99;69.88;95907.13;5004759;28;20509;-58
2022/11/14 09:56:55;;;;;;;134.03;53.60;;;8.10;99.90;;;8.00;69.93;95898.34;5004434;28;20454;-56
2022/11/14 09:59:23;;;;;;;128.23;51.30;;;8.10;99.90;;;8.05;69.63;95891.00;5006557;28;20488;-55
2022/11/14 10:02:03;;;;;;;132.47;53.63;;;8.10;99.90;;;8.07;69.71;95896.97;5008381;28;20449;-55
2022/11/14 10:04:44;;;;;;;120.03;52.40;;;8.10;99.90;;;8.15;70.19;95896.50;5008576;28;20478;-55
2022/11/14 10:07:20;;;;;;;126.67;54.60;;;8.20;99.90;;;8.23;69.94;95887.19;5006452;28;20559;-56
2022/11/14 10:09:55;;;;;;;121.33;52.93;;;8.30;99.90;;;8.33;69.85;95886.59;5008744;28;20822;-54
2022/11/14 10:12:25;;;;;;;137.27;55.80;;;8.40;99.90;;;8.37;69.76;95880.22;5002891;28;20449;-56
2022/11/14 10:15:16;;;;;;;135.40;56.00;;;8.40;99.90;;;8.47;69.63;95875.22;5008351;28;20488;-54
2022/11/14 10:18:23;;;;;;;131.07;55.03;;;8.50;99.90;;;8.62;68.76;95879.47;5005041;28;20981;-56
2022/11/14 10:20:54;;;;;;;129.13;54.43;;;8.60;99.90;;;8.81;68.84;95865.09;5000036;28;20556;-53
2022/11/14 10:23:33;;;;;;;145.70;56.40;;;8.80;99.90;;;9.17;68.32;95869.63;5005312;28;21044;-54